Flight Track Log - Related Links

Times and Time Zones

All times are in EDT time to prevent confusion due to time zone crossing. See the N77HE flight status page for this flight to view local times or setup timezone preferences in your user account.

Time Position Orientation Groundspeed Altitude Reporting Facility
EDT Latitude Longitude Course Direction KTS MPH feet Rate Location/Type
Sat 04:50:03 AM 37.6375 -97.4625 294° West 153 176 3,600  Level Kansas City Center
Sat 04:51:04 AM 37.6522 -97.5053 294° West 137 158 5,100 1,388 Climbing Kansas City Center
Sat 04:52:04 AM 37.6831 -97.5403 318° Northwest 149 171 6,400 1,240 Climbing Kansas City Center
Sat 04:53:05 AM 37.7017 -97.5822 299° West 135 155 7,600 793 Climbing Kansas City Center
Sat 04:54:05 AM 37.7147 -97.6306 289° West 140 161 8,000 194 Climbing Kansas City Center
Sat 04:55:09 AM 37.7406 -97.6883 299° West 168 193 8,000  Level Kansas City Center
Sat 04:56:10 AM 37.7761 -97.7439 309° West 189 217 8,000  Level Kansas City Center
Sat 04:57:10 AM 37.8089 -97.7994 307° West 194 223 8,000  Level Kansas City Center
Sat 04:58:11 AM 37.8392 -97.8581 303° West 197 227 8,000  Level Kansas City Center
Sat 04:59:11 AM 37.8678 -97.9164 302° West 194 223 8,000  Level Kansas City Center
Sat 05:00:12 AM 37.8978 -97.9764 302° West 196 226 8,000  Level Kansas City Center
Sat 05:01:12 AM 37.9278 -98.0347 303° West 195 224 8,000  Level Kansas City Center
Sat 05:02:13 AM 37.9569 -98.0919 303° West 193 222 8,000 50 Level Kansas City Center
Sat 05:03:13 AM 37.9853 -98.1508 301° West 194 223 8,100 50 Climbing Kansas City Center
Sat 05:04:14 AM 38.0144 -98.2086 303° West 195 224 8,100  Level Kansas City Center
Sat 05:05:14 AM 38.0444 -98.2669 303° West 196 226 8,100  Level Kansas City Center
Sat 05:06:15 AM 38.0733 -98.3239 303° West 193 222 8,100 -49 Level Kansas City Center
Sat 05:07:16 AM 38.1028 -98.3828 302° West 196 226 8,000 -545 Descending Kansas City Center
Sat 05:08:16 AM 38.1339 -98.4450 302° West 206 237 7,000 -1,091 Descending Kansas City Center
Sat 05:09:17 AM 38.1772 -98.5069 312° West 226 260 5,800 -942 Descending Kansas City Center
Sat 05:10:17 AM 38.2103 -98.5611 308° West 212 244 5,100 -694 Descending Kansas City Center
Sat 05:11:18 AM 38.2419 -98.6100 310° West 192 221 4,400 -689 Descending Kansas City Center

Login

Don't have an account? Register now (free) for customized features, flight alerts, and more!